sensor_id;sensor_type;location;lat;lon;timestamp;P1;durP1;ratioP1;P2;durP2;ratioP2
46391;SDS011;32098;49.448;7.904;2022-12-24T00:00:33;10.03;;;2.13;;
46391;SDS011;32098;49.448;7.904;2022-12-24T00:03:00;9.20;;;1.87;;
46391;SDS011;32098;49.448;7.904;2022-12-24T00:05:27;12.30;;;1.80;;
46391;SDS011;32098;49.448;7.904;2022-12-24T00:07:53;7.80;;;2.07;;
46391;SDS011;32098;49.448;7.904;2022-12-24T00:10:20;10.97;;;2.00;;
46391;SDS011;32098;49.448;7.904;2022-12-24T00:12:46;8.60;;;1.87;;
46391;SDS011;32098;49.448;7.904;2022-12-24T00:15:13;9.00;;;2.37;;
46391;SDS011;32098;49.448;7.904;2022-12-24T00:17:39;8.17;;;2.13;;
46391;SDS011;32098;49.448;7.904;2022-12-24T00:20:06;11.23;;;2.30;;
46391;SDS011;32098;49.448;7.904;2022-12-24T00:22:33;8.13;;;2.00;;
46391;SDS011;32098;49.448;7.904;2022-12-24T00:24:59;11.97;;;2.40;;
46391;SDS011;32098;49.448;7.904;2022-12-24T00:27:26;10.07;;;2.27;;
46391;SDS011;32098;49.448;7.904;2022-12-24T00:29:52;7.67;;;2.03;;
46391;SDS011;32098;49.448;7.904;2022-12-24T00:32:18;7.53;;;1.90;;
46391;SDS011;32098;49.448;7.904;2022-12-24T00:34:45;9.67;;;2.50;;
46391;SDS011;32098;49.448;7.904;2022-12-24T00:37:11;9.63;;;2.07;;
46391;SDS011;32098;49.448;7.904;2022-12-24T00:39:38;9.73;;;2.00;;
46391;SDS011;32098;49.448;7.904;2022-12-24T00:42:04;10.60;;;2.47;;
46391;SDS011;32098;49.448;7.904;2022-12-24T00:44:31;9.27;;;1.90;;
46391;SDS011;32098;49.448;7.904;2022-12-24T00:46:57;9.07;;;2.47;;
46391;SDS011;32098;49.448;7.904;2022-12-24T00:49:24;10.50;;;2.10;;
46391;SDS011;32098;49.448;7.904;2022-12-24T00:51:50;7.80;;;2.10;;
46391;SDS011;32098;49.448;7.904;2022-12-24T00:54:16;12.20;;;2.10;;
46391;SDS011;32098;49.448;7.904;2022-12-24T00:56:43;10.13;;;2.33;;
46391;SDS011;32098;49.448;7.904;2022-12-24T00:59:09;8.87;;;1.70;;
46391;SDS011;32098;49.448;7.904;2022-12-24T01:01:36;10.63;;;2.20;;
46391;SDS011;32098;49.448;7.904;2022-12-24T01:04:02;8.60;;;2.17;;
46391;SDS011;32098;49.448;7.904;2022-12-24T01:06:47;13.10;;;2.03;;
46391;SDS011;32098;49.448;7.904;2022-12-24T01:09:14;9.40;;;2.20;;
46391;SDS011;32098;49.448;7.904;2022-12-24T01:11:40;9.77;;;2.07;;
46391;SDS011;32098;49.448;7.904;2022-12-24T01:14:07;9.43;;;2.10;;
46391;SDS011;32098;49.448;7.904;2022-12-24T01:16:33;14.23;;;2.27;;
46391;SDS011;32098;49.448;7.904;2022-12-24T01:19:00;11.37;;;2.40;;
46391;SDS011;32098;49.448;7.904;2022-12-24T01:21:26;13.73;;;2.17;;
46391;SDS011;32098;49.448;7.904;2022-12-24T01:23:53;11.57;;;2.40;;
46391;SDS011;32098;49.448;7.904;2022-12-24T01:26:19;10.70;;;2.53;;
46391;SDS011;32098;49.448;7.904;2022-12-24T01:28:46;10.00;;;2.20;;
46391;SDS011;32098;49.448;7.904;2022-12-24T01:31:13;10.23;;;2.10;;
46391;SDS011;32098;49.448;7.904;2022-12-24T01:33:41;12.10;;;1.83;;
46391;SDS011;32098;49.448;7.904;2022-12-24T01:36:09;10.23;;;2.20;;
46391;SDS011;32098;49.448;7.904;2022-12-24T01:38:35;11.17;;;2.47;;
46391;SDS011;32098;49.448;7.904;2022-12-24T01:41:02;10.77;;;2.40;;
46391;SDS011;32098;49.448;7.904;2022-12-24T01:43:47;11.03;;;1.90;;
46391;SDS011;32098;49.448;7.904;2022-12-24T01:48:48;9.80;;;2.70;;
46391;SDS011;32098;49.448;7.904;2022-12-24T01:54:18;7.27;;;1.87;;
46391;SDS011;32098;49.448;7.904;2022-12-24T01:56:55;10.53;;;2.07;;
46391;SDS011;32098;49.448;7.904;2022-12-24T01:59:27;13.83;;;2.50;;
46391;SDS011;32098;49.448;7.904;2022-12-24T02:01:54;11.80;;;2.50;;
46391;SDS011;32098;49.448;7.904;2022-12-24T02:06:53;13.30;;;2.07;;
46391;SDS011;32098;49.448;7.904;2022-12-24T02:09:20;9.10;;;2.20;;
46391;SDS011;32098;49.448;7.904;2022-12-24T02:11:46;8.07;;;1.90;;
46391;SDS011;32098;49.448;7.904;2022-12-24T02:14:13;8.50;;;2.17;;
46391;SDS011;32098;49.448;7.904;2022-12-24T02:17:01;8.20;;;1.90;;
46391;SDS011;32098;49.448;7.904;2022-12-24T02:22:32;9.57;;;2.10;;
46391;SDS011;32098;49.448;7.904;2022-12-24T02:31:06;14.30;;;2.67;;
46391;SDS011;32098;49.448;7.904;2022-12-24T02:36:27;10.13;;;2.00;;
46391;SDS011;32098;49.448;7.904;2022-12-24T02:39:05;13.23;;;2.40;;
46391;SDS011;32098;49.448;7.904;2022-12-24T02:41:36;10.40;;;1.80;;
46391;SDS011;32098;49.448;7.904;2022-12-24T02:44:26;12.77;;;2.13;;
46391;SDS011;32098;49.448;7.904;2022-12-24T02:46:55;9.53;;;1.93;;
46391;SDS011;32098;49.448;7.904;2022-12-24T02:49:24;7.73;;;2.30;;
46391;SDS011;32098;49.448;7.904;2022-12-24T02:51:51;7.77;;;2.03;;
46391;SDS011;32098;49.448;7.904;2022-12-24T02:54:17;10.47;;;2.00;;
46391;SDS011;32098;49.448;7.904;2022-12-24T02:56:47;8.43;;;2.10;;
46391;SDS011;32098;49.448;7.904;2022-12-24T02:59:59;9.33;;;1.80;;
46391;SDS011;32098;49.448;7.904;2022-12-24T03:02:35;12.27;;;2.33;;
46391;SDS011;32098;49.448;7.904;2022-12-24T03:05:27;13.20;;;2.93;;
46391;SDS011;32098;49.448;7.904;2022-12-24T03:11:12;15.63;;;2.83;;
46391;SDS011;32098;49.448;7.904;2022-12-24T03:13:34;13.10;;;2.60;;
46391;SDS011;32098;49.448;7.904;2022-12-24T03:16:02;9.43;;;2.67;;
46391;SDS011;32098;49.448;7.904;2022-12-24T03:18:31;11.77;;;2.37;;
46391;SDS011;32098;49.448;7.904;2022-12-24T03:21:06;9.67;;;2.43;;
46391;SDS011;32098;49.448;7.904;2022-12-24T03:23:46;10.50;;;2.83;;
46391;SDS011;32098;49.448;7.904;2022-12-24T03:26:15;8.90;;;2.37;;
46391;SDS011;32098;49.448;7.904;2022-12-24T03:28:43;12.07;;;2.90;;
46391;SDS011;32098;49.448;7.904;2022-12-24T03:31:11;12.77;;;2.50;;
46391;SDS011;32098;49.448;7.904;2022-12-24T03:33:38;13.43;;;3.07;;
46391;SDS011;32098;49.448;7.904;2022-12-24T03:36:05;12.97;;;2.10;;
46391;SDS011;32098;49.448;7.904;2022-12-24T03:38:32;13.53;;;3.10;;
46391;SDS011;32098;49.448;7.904;2022-12-24T03:40:59;15.40;;;3.33;;
46391;SDS011;32098;49.448;7.904;2022-12-24T03:43:26;13.27;;;3.30;;
46391;SDS011;32098;49.448;7.904;2022-12-24T03:45:52;15.43;;;2.73;;
46391;SDS011;32098;49.448;7.904;2022-12-24T03:48:19;14.83;;;3.17;;
46391;SDS011;32098;49.448;7.904;2022-12-24T03:50:45;13.50;;;2.97;;
46391;SDS011;32098;49.448;7.904;2022-12-24T03:53:12;15.43;;;2.77;;
46391;SDS011;32098;49.448;7.904;2022-12-24T03:55:38;16.30;;;3.23;;
46391;SDS011;32098;49.448;7.904;2022-12-24T03:58:05;13.60;;;2.53;;
46391;SDS011;32098;49.448;7.904;2022-12-24T04:00:32;11.67;;;3.43;;
46391;SDS011;32098;49.448;7.904;2022-12-24T04:02:58;12.90;;;3.13;;
46391;SDS011;32098;49.448;7.904;2022-12-24T04:05:25;15.90;;;2.90;;
46391;SDS011;32098;49.448;7.904;2022-12-24T04:07:51;12.40;;;3.00;;
46391;SDS011;32098;49.448;7.904;2022-12-24T04:10:18;15.23;;;3.33;;
46391;SDS011;32098;49.448;7.904;2022-12-24T04:12:44;14.00;;;3.13;;
46391;SDS011;32098;49.448;7.904;2022-12-24T04:15:11;11.77;;;2.77;;
46391;SDS011;32098;49.448;7.904;2022-12-24T04:17:37;16.50;;;3.50;;
46391;SDS011;32098;49.448;7.904;2022-12-24T04:20:04;13.10;;;2.87;;
46391;SDS011;32098;49.448;7.904;2022-12-24T04:22:31;13.47;;;2.73;;
46391;SDS011;32098;49.448;7.904;2022-12-24T04:24:57;18.27;;;3.30;;
46391;SDS011;32098;49.448;7.904;2022-12-24T04:27:24;17.80;;;3.40;;
46391;SDS011;32098;49.448;7.904;2022-12-24T04:29:55;13.43;;;2.87;;
46391;SDS011;32098;49.448;7.904;2022-12-24T04:32:22;15.27;;;3.33;;
46391;SDS011;32098;49.448;7.904;2022-12-24T04:34:51;16.20;;;3.40;;
46391;SDS011;32098;49.448;7.904;2022-12-24T04:37:17;17.90;;;2.90;;
46391;SDS011;32098;49.448;7.904;2022-12-24T04:39:44;12.30;;;2.87;;
46391;SDS011;32098;49.448;7.904;2022-12-24T04:42:10;11.90;;;2.90;;
46391;SDS011;32098;49.448;7.904;2022-12-24T04:44:37;16.20;;;3.40;;
46391;SDS011;32098;49.448;7.904;2022-12-24T04:47:03;16.43;;;3.07;;
46391;SDS011;32098;49.448;7.904;2022-12-24T04:49:29;15.33;;;2.83;;
46391;SDS011;32098;49.448;7.904;2022-12-24T04:51:56;13.90;;;3.27;;
46391;SDS011;32098;49.448;7.904;2022-12-24T04:54:22;17.27;;;3.50;;
46391;SDS011;32098;49.448;7.904;2022-12-24T04:56:49;18.00;;;3.97;;
46391;SDS011;32098;49.448;7.904;2022-12-24T04:59:15;17.90;;;3.73;;
46391;SDS011;32098;49.448;7.904;2022-12-24T05:01:42;21.90;;;6.43;;
46391;SDS011;32098;49.448;7.904;2022-12-24T05:04:08;19.00;;;4.30;;
46391;SDS011;32098;49.448;7.904;2022-12-24T05:06:36;16.30;;;3.50;;
46391;SDS011;32098;49.448;7.904;2022-12-24T05:09:02;16.87;;;3.57;;
46391;SDS011;32098;49.448;7.904;2022-12-24T05:11:29;19.80;;;4.33;;
46391;SDS011;32098;49.448;7.904;2022-12-24T05:13:56;17.40;;;3.30;;
46391;SDS011;32098;49.448;7.904;2022-12-24T05:16:22;24.90;;;3.80;;
46391;SDS011;32098;49.448;7.904;2022-12-24T05:18:49;19.80;;;3.90;;
46391;SDS011;32098;49.448;7.904;2022-12-24T05:21:17;14.00;;;3.43;;
46391;SDS011;32098;49.448;7.904;2022-12-24T05:23:47;15.50;;;3.17;;
46391;SDS011;32098;49.448;7.904;2022-12-24T05:29:10;17.87;;;3.83;;
46391;SDS011;32098;49.448;7.904;2022-12-24T05:31:40;17.77;;;3.30;;
46391;SDS011;32098;49.448;7.904;2022-12-24T05:34:08;18.43;;;4.00;;
46391;SDS011;32098;49.448;7.904;2022-12-24T05:36:35;20.50;;;4.10;;
46391;SDS011;32098;49.448;7.904;2022-12-24T05:39:02;19.23;;;3.23;;
46391;SDS011;32098;49.448;7.904;2022-12-24T05:41:33;19.37;;;3.40;;
46391;SDS011;32098;49.448;7.904;2022-12-24T05:44:00;17.90;;;3.50;;
46391;SDS011;32098;49.448;7.904;2022-12-24T05:46:26;17.10;;;4.33;;
46391;SDS011;32098;49.448;7.904;2022-12-24T05:48:53;19.70;;;3.40;;
46391;SDS011;32098;49.448;7.904;2022-12-24T05:51:20;22.10;;;4.00;;
46391;SDS011;32098;49.448;7.904;2022-12-24T05:53:47;22.17;;;4.07;;
46391;SDS011;32098;49.448;7.904;2022-12-24T05:56:16;20.90;;;4.03;;
46391;SDS011;32098;49.448;7.904;2022-12-24T05:58:46;20.63;;;4.47;;
46391;SDS011;32098;49.448;7.904;2022-12-24T06:01:13;18.53;;;3.60;;
46391;SDS011;32098;49.448;7.904;2022-12-24T06:03:40;17.67;;;3.13;;
46391;SDS011;32098;49.448;7.904;2022-12-24T06:06:08;21.33;;;3.50;;
46391;SDS011;32098;49.448;7.904;2022-12-24T06:08:40;15.90;;;3.40;;
46391;SDS011;32098;49.448;7.904;2022-12-24T06:11:08;18.10;;;3.00;;
46391;SDS011;32098;49.448;7.904;2022-12-24T06:13:37;19.90;;;3.53;;
46391;SDS011;32098;49.448;7.904;2022-12-24T06:16:04;18.07;;;3.07;;
46391;SDS011;32098;49.448;7.904;2022-12-24T06:18:33;19.37;;;3.43;;
46391;SDS011;32098;49.448;7.904;2022-12-24T06:21:00;19.33;;;3.20;;
46391;SDS011;32098;49.448;7.904;2022-12-24T06:23:28;16.70;;;2.73;;
46391;SDS011;32098;49.448;7.904;2022-12-24T06:25:56;20.60;;;3.37;;
46391;SDS011;32098;49.448;7.904;2022-12-24T06:28:26;25.43;;;3.73;;
46391;SDS011;32098;49.448;7.904;2022-12-24T06:30:53;23.10;;;3.57;;
46391;SDS011;32098;49.448;7.904;2022-12-24T06:33:28;24.93;;;4.33;;
46391;SDS011;32098;49.448;7.904;2022-12-24T06:35:55;23.67;;;3.80;;
46391;SDS011;32098;49.448;7.904;2022-12-24T06:38:21;17.60;;;3.40;;
46391;SDS011;32098;49.448;7.904;2022-12-24T06:40:48;19.67;;;4.07;;
46391;SDS011;32098;49.448;7.904;2022-12-24T06:43:14;19.40;;;3.70;;
46391;SDS011;32098;49.448;7.904;2022-12-24T06:45:44;24.43;;;4.13;;
46391;SDS011;32098;49.448;7.904;2022-12-24T06:48:12;13.00;;;3.03;;
46391;SDS011;32098;49.448;7.904;2022-12-24T06:50:40;18.63;;;3.53;;
46391;SDS011;32098;49.448;7.904;2022-12-24T06:53:07;20.27;;;3.80;;
46391;SDS011;32098;49.448;7.904;2022-12-24T06:55:33;20.47;;;3.50;;
46391;SDS011;32098;49.448;7.904;2022-12-24T06:58:00;21.63;;;3.70;;
46391;SDS011;32098;49.448;7.904;2022-12-24T07:00:26;23.33;;;4.20;;
46391;SDS011;32098;49.448;7.904;2022-12-24T07:02:53;20.13;;;3.53;;
46391;SDS011;32098;49.448;7.904;2022-12-24T07:05:19;19.23;;;3.43;;
46391;SDS011;32098;49.448;7.904;2022-12-24T07:07:46;21.93;;;3.63;;
46391;SDS011;32098;49.448;7.904;2022-12-24T07:10:13;23.90;;;4.10;;
46391;SDS011;32098;49.448;7.904;2022-12-24T07:12:41;20.87;;;4.57;;
46391;SDS011;32098;49.448;7.904;2022-12-24T07:15:08;22.43;;;5.63;;
46391;SDS011;32098;49.448;7.904;2022-12-24T07:17:36;18.03;;;4.23;;
46391;SDS011;32098;49.448;7.904;2022-12-24T07:20:03;18.60;;;3.93;;
46391;SDS011;32098;49.448;7.904;2022-12-24T07:22:31;25.10;;;3.77;;
46391;SDS011;32098;49.448;7.904;2022-12-24T07:24:57;17.20;;;3.50;;
46391;SDS011;32098;49.448;7.904;2022-12-24T07:27:24;17.17;;;3.60;;
46391;SDS011;32098;49.448;7.904;2022-12-24T07:29:50;17.97;;;3.60;;
46391;SDS011;32098;49.448;7.904;2022-12-24T07:32:17;18.87;;;3.80;;
46391;SDS011;32098;49.448;7.904;2022-12-24T07:34:45;16.23;;;3.53;;
46391;SDS011;32098;49.448;7.904;2022-12-24T07:37:11;22.50;;;4.07;;
46391;SDS011;32098;49.448;7.904;2022-12-24T07:39:38;24.97;;;4.13;;
46391;SDS011;32098;49.448;7.904;2022-12-24T07:42:05;17.93;;;3.70;;
46391;SDS011;32098;49.448;7.904;2022-12-24T07:44:34;18.00;;;3.90;;
46391;SDS011;32098;49.448;7.904;2022-12-24T07:47:00;22.20;;;5.40;;
46391;SDS011;32098;49.448;7.904;2022-12-24T07:49:27;21.27;;;4.00;;
46391;SDS011;32098;49.448;7.904;2022-12-24T07:51:53;27.70;;;4.07;;
46391;SDS011;32098;49.448;7.904;2022-12-24T07:54:20;21.43;;;3.87;;
46391;SDS011;32098;49.448;7.904;2022-12-24T07:56:46;17.07;;;4.17;;
46391;SDS011;32098;49.448;7.904;2022-12-24T07:59:13;25.87;;;4.23;;
46391;SDS011;32098;49.448;7.904;2022-12-24T08:01:39;19.33;;;4.27;;
46391;SDS011;32098;49.448;7.904;2022-12-24T08:04:07;20.67;;;4.33;;
46391;SDS011;32098;49.448;7.904;2022-12-24T08:06:33;24.63;;;4.23;;
46391;SDS011;32098;49.448;7.904;2022-12-24T08:09:00;19.13;;;4.07;;
46391;SDS011;32098;49.448;7.904;2022-12-24T08:11:26;20.97;;;4.00;;
46391;SDS011;32098;49.448;7.904;2022-12-24T08:13:53;23.87;;;4.00;;
46391;SDS011;32098;49.448;7.904;2022-12-24T08:16:19;22.23;;;4.63;;
46391;SDS011;32098;49.448;7.904;2022-12-24T08:18:46;23.10;;;4.63;;
46391;SDS011;32098;49.448;7.904;2022-12-24T08:21:12;15.70;;;4.17;;
46391;SDS011;32098;49.448;7.904;2022-12-24T08:23:39;17.77;;;4.03;;
46391;SDS011;32098;49.448;7.904;2022-12-24T08:26:07;17.23;;;4.60;;
46391;SDS011;32098;49.448;7.904;2022-12-24T08:28:34;18.57;;;3.50;;
46391;SDS011;32098;49.448;7.904;2022-12-24T08:31:01;17.93;;;3.73;;
46391;SDS011;32098;49.448;7.904;2022-12-24T08:33:28;17.33;;;4.03;;
46391;SDS011;32098;49.448;7.904;2022-12-24T08:35:55;15.43;;;4.13;;
46391;SDS011;32098;49.448;7.904;2022-12-24T08:38:22;19.67;;;3.73;;
46391;SDS011;32098;49.448;7.904;2022-12-24T08:40:49;22.00;;;4.40;;
46391;SDS011;32098;49.448;7.904;2022-12-24T08:43:17;26.97;;;6.50;;
46391;SDS011;32098;49.448;7.904;2022-12-24T08:45:45;20.87;;;5.67;;
46391;SDS011;32098;49.448;7.904;2022-12-24T08:48:13;20.10;;;4.23;;
46391;SDS011;32098;49.448;7.904;2022-12-24T08:50:40;20.13;;;4.40;;
46391;SDS011;32098;49.448;7.904;2022-12-24T08:53:07;26.43;;;4.10;;
46391;SDS011;32098;49.448;7.904;2022-12-24T08:55:34;19.17;;;3.80;;
46391;SDS011;32098;49.448;7.904;2022-12-24T08:58:01;18.60;;;3.70;;
46391;SDS011;32098;49.448;7.904;2022-12-24T09:00:28;17.57;;;3.53;;
46391;SDS011;32098;49.448;7.904;2022-12-24T09:02:55;24.47;;;4.80;;
46391;SDS011;32098;49.448;7.904;2022-12-24T09:05:22;16.30;;;3.90;;
46391;SDS011;32098;49.448;7.904;2022-12-24T09:07:49;16.93;;;3.63;;
46391;SDS011;32098;49.448;7.904;2022-12-24T09:10:15;20.13;;;4.60;;
46391;SDS011;32098;49.448;7.904;2022-12-24T09:12:42;19.13;;;3.67;;
46391;SDS011;32098;49.448;7.904;2022-12-24T09:15:09;22.17;;;4.47;;
46391;SDS011;32098;49.448;7.904;2022-12-24T09:17:36;17.57;;;3.77;;
46391;SDS011;32098;49.448;7.904;2022-12-24T09:20:03;19.67;;;4.10;;
46391;SDS011;32098;49.448;7.904;2022-12-24T09:22:36;18.70;;;3.63;;
46391;SDS011;32098;49.448;7.904;2022-12-24T09:25:04;22.10;;;4.00;;
46391;SDS011;32098;49.448;7.904;2022-12-24T09:27:35;21.50;;;4.63;;
46391;SDS011;32098;49.448;7.904;2022-12-24T09:30:03;19.23;;;4.63;;
46391;SDS011;32098;49.448;7.904;2022-12-24T09:32:31;18.07;;;4.27;;
46391;SDS011;32098;49.448;7.904;2022-12-24T09:34:57;19.73;;;4.33;;
46391;SDS011;32098;49.448;7.904;2022-12-24T09:37:24;21.10;;;4.20;;
46391;SDS011;32098;49.448;7.904;2022-12-24T09:39:50;19.83;;;3.43;;
46391;SDS011;32098;49.448;7.904;2022-12-24T09:42:21;18.37;;;4.60;;
46391;SDS011;32098;49.448;7.904;2022-12-24T09:44:57;17.33;;;3.70;;
46391;SDS011;32098;49.448;7.904;2022-12-24T09:47:32;18.87;;;4.20;;
46391;SDS011;32098;49.448;7.904;2022-12-24T09:50:08;15.73;;;3.73;;
46391;SDS011;32098;49.448;7.904;2022-12-24T09:53:03;20.63;;;4.33;;
46391;SDS011;32098;49.448;7.904;2022-12-24T09:56:11;23.37;;;4.57;;
46391;SDS011;32098;49.448;7.904;2022-12-24T09:58:43;19.87;;;4.33;;
46391;SDS011;32098;49.448;7.904;2022-12-24T10:01:14;18.97;;;3.83;;
46391;SDS011;32098;49.448;7.904;2022-12-24T10:03:42;19.60;;;4.87;;
46391;SDS011;32098;49.448;7.904;2022-12-24T10:06:14;25.77;;;5.07;;
46391;SDS011;32098;49.448;7.904;2022-12-24T10:25:47;19.53;;;3.53;;
46391;SDS011;32098;49.448;7.904;2022-12-24T10:28:21;20.17;;;3.13;;
46391;SDS011;32098;49.448;7.904;2022-12-24T10:30:57;17.63;;;3.90;;
46391;SDS011;32098;49.448;7.904;2022-12-24T10:34:00;19.93;;;3.83;;
46391;SDS011;32098;49.448;7.904;2022-12-24T10:36:28;17.17;;;3.77;;
46391;SDS011;32098;49.448;7.904;2022-12-24T10:38:56;13.37;;;3.37;;
46391;SDS011;32098;49.448;7.904;2022-12-24T10:41:23;15.10;;;3.63;;
46391;SDS011;32098;49.448;7.904;2022-12-24T10:43:52;13.13;;;3.73;;
46391;SDS011;32098;49.448;7.904;2022-12-24T10:46:21;18.77;;;4.20;;
46391;SDS011;32098;49.448;7.904;2022-12-24T10:49:01;20.20;;;3.90;;
46391;SDS011;32098;49.448;7.904;2022-12-24T10:51:37;16.53;;;3.77;;
46391;SDS011;32098;49.448;7.904;2022-12-24T10:56:40;16.50;;;4.40;;
46391;SDS011;32098;49.448;7.904;2022-12-24T10:59:21;20.63;;;3.90;;
46391;SDS011;32098;49.448;7.904;2022-12-24T11:01:48;17.73;;;4.10;;
46391;SDS011;32098;49.448;7.904;2022-12-24T11:04:19;17.13;;;4.50;;
46391;SDS011;32098;49.448;7.904;2022-12-24T11:06:51;21.43;;;4.17;;
46391;SDS011;32098;49.448;7.904;2022-12-24T11:09:20;17.10;;;4.27;;
46391;SDS011;32098;49.448;7.904;2022-12-24T11:11:49;20.93;;;4.57;;
46391;SDS011;32098;49.448;7.904;2022-12-24T11:14:16;17.77;;;3.77;;
46391;SDS011;32098;49.448;7.904;2022-12-24T11:16:48;16.33;;;3.77;;
46391;SDS011;32098;49.448;7.904;2022-12-24T11:19:19;19.17;;;4.53;;
46391;SDS011;32098;49.448;7.904;2022-12-24T11:22:17;16.53;;;4.83;;
46391;SDS011;32098;49.448;7.904;2022-12-24T11:24:55;22.47;;;4.53;;
46391;SDS011;32098;49.448;7.904;2022-12-24T11:27:29;19.63;;;4.10;;
46391;SDS011;32098;49.448;7.904;2022-12-24T11:32:44;17.13;;;4.50;;
46391;SDS011;32098;49.448;7.904;2022-12-24T11:35:17;17.40;;;4.23;;
46391;SDS011;32098;49.448;7.904;2022-12-24T11:40:27;21.90;;;4.60;;
46391;SDS011;32098;49.448;7.904;2022-12-24T11:43:01;19.70;;;5.17;;
46391;SDS011;32098;49.448;7.904;2022-12-24T11:45:29;14.40;;;3.70;;
46391;SDS011;32098;49.448;7.904;2022-12-24T11:47:57;22.53;;;5.07;;
46391;SDS011;32098;49.448;7.904;2022-12-24T11:50:31;19.20;;;5.57;;
46391;SDS011;32098;49.448;7.904;2022-12-24T12:01:01;15.77;;;4.23;;
46391;SDS011;32098;49.448;7.904;2022-12-24T12:03:45;17.40;;;4.17;;
46391;SDS011;32098;49.448;7.904;2022-12-24T12:16:00;23.80;;;4.53;;
46391;SDS011;32098;49.448;7.904;2022-12-24T12:18:36;16.07;;;4.90;;
46391;SDS011;32098;49.448;7.904;2022-12-24T12:21:05;18.27;;;3.83;;
46391;SDS011;32098;49.448;7.904;2022-12-24T12:23:56;14.98;;;4.15;;
46391;SDS011;32098;49.448;7.904;2022-12-24T12:26:28;16.47;;;3.47;;
46391;SDS011;32098;49.448;7.904;2022-12-24T12:29:00;17.80;;;3.83;;
46391;SDS011;32098;49.448;7.904;2022-12-24T12:31:40;14.57;;;3.10;;
46391;SDS011;32098;49.448;7.904;2022-12-24T12:36:47;13.13;;;3.30;;
46391;SDS011;32098;49.448;7.904;2022-12-24T12:39:16;11.43;;;3.30;;
46391;SDS011;32098;49.448;7.904;2022-12-24T12:44:27;12.70;;;3.50;;
46391;SDS011;32098;49.448;7.904;2022-12-24T12:47:15;14.30;;;3.43;;
46391;SDS011;32098;49.448;7.904;2022-12-24T12:49:52;15.13;;;4.53;;
46391;SDS011;32098;49.448;7.904;2022-12-24T12:55:31;12.07;;;3.33;;
46391;SDS011;32098;49.448;7.904;2022-12-24T12:58:11;13.60;;;3.50;;
46391;SDS011;32098;49.448;7.904;2022-12-24T13:00:46;15.53;;;2.97;;
46391;SDS011;32098;49.448;7.904;2022-12-24T13:03:26;13.23;;;3.50;;
46391;SDS011;32098;49.448;7.904;2022-12-24T13:06:02;10.70;;;3.00;;
46391;SDS011;32098;49.448;7.904;2022-12-24T13:09:00;13.00;;;3.30;;
46391;SDS011;32098;49.448;7.904;2022-12-24T13:11:35;8.10;;;2.97;;
46391;SDS011;32098;49.448;7.904;2022-12-24T13:14:29;9.60;;;3.57;;
46391;SDS011;32098;49.448;7.904;2022-12-24T13:20:10;14.10;;;4.50;;
46391;SDS011;32098;49.448;7.904;2022-12-24T13:22:46;12.13;;;3.97;;
46391;SDS011;32098;49.448;7.904;2022-12-24T13:25:34;18.33;;;9.27;;
46391;SDS011;32098;49.448;7.904;2022-12-24T13:30:51;10.33;;;5.90;;
46391;SDS011;32098;49.448;7.904;2022-12-24T13:36:09;9.33;;;4.40;;
46391;SDS011;32098;49.448;7.904;2022-12-24T13:38:43;10.53;;;4.77;;
46391;SDS011;32098;49.448;7.904;2022-12-24T13:49:38;11.23;;;3.53;;
46391;SDS011;32098;49.448;7.904;2022-12-24T13:54:37;16.03;;;5.80;;
46391;SDS011;32098;49.448;7.904;2022-12-24T14:02:39;15.17;;;4.43;;
46391;SDS011;32098;49.448;7.904;2022-12-24T14:05:18;15.80;;;4.90;;
46391;SDS011;32098;49.448;7.904;2022-12-24T14:07:52;19.40;;;5.10;;
46391;SDS011;32098;49.448;7.904;2022-12-24T14:10:34;15.40;;;5.60;;
46391;SDS011;32098;49.448;7.904;2022-12-24T14:13:04;17.97;;;5.23;;
46391;SDS011;32098;49.448;7.904;2022-12-24T14:18:17;16.77;;;4.70;;
46391;SDS011;32098;49.448;7.904;2022-12-24T14:20:49;13.67;;;3.80;;
46391;SDS011;32098;49.448;7.904;2022-12-24T14:23:27;15.30;;;4.13;;
46391;SDS011;32098;49.448;7.904;2022-12-24T14:25:59;17.20;;;4.20;;
46391;SDS011;32098;49.448;7.904;2022-12-24T14:28:30;18.60;;;4.07;;
46391;SDS011;32098;49.448;7.904;2022-12-24T14:31:02;16.07;;;4.83;;
46391;SDS011;32098;49.448;7.904;2022-12-24T14:33:30;16.33;;;4.17;;
46391;SDS011;32098;49.448;7.904;2022-12-24T14:35:58;17.23;;;3.87;;
46391;SDS011;32098;49.448;7.904;2022-12-24T14:38:27;13.17;;;3.40;;
46391;SDS011;32098;49.448;7.904;2022-12-24T14:50:14;17.30;;;3.73;;
46391;SDS011;32098;49.448;7.904;2022-12-24T14:52:37;17.87;;;4.30;;
46391;SDS011;32098;49.448;7.904;2022-12-24T14:55:41;19.00;;;4.33;;
46391;SDS011;32098;49.448;7.904;2022-12-24T14:58:20;16.00;;;4.60;;
46391;SDS011;32098;49.448;7.904;2022-12-24T15:00:53;14.47;;;5.03;;
46391;SDS011;32098;49.448;7.904;2022-12-24T15:03:23;17.63;;;4.57;;
46391;SDS011;32098;49.448;7.904;2022-12-24T15:06:03;17.60;;;6.43;;
46391;SDS011;32098;49.448;7.904;2022-12-24T15:08:32;22.00;;;6.70;;
46391;SDS011;32098;49.448;7.904;2022-12-24T15:11:04;15.07;;;5.73;;
46391;SDS011;32098;49.448;7.904;2022-12-24T15:13:35;20.97;;;5.93;;
46391;SDS011;32098;49.448;7.904;2022-12-24T15:16:05;14.53;;;4.73;;
46391;SDS011;32098;49.448;7.904;2022-12-24T15:18:37;14.27;;;4.17;;
46391;SDS011;32098;49.448;7.904;2022-12-24T15:21:13;16.40;;;6.00;;
46391;SDS011;32098;49.448;7.904;2022-12-24T15:23:44;16.63;;;4.90;;
46391;SDS011;32098;49.448;7.904;2022-12-24T15:28:42;18.67;;;6.00;;
46391;SDS011;32098;49.448;7.904;2022-12-24T15:31:18;15.27;;;4.80;;
46391;SDS011;32098;49.448;7.904;2022-12-24T15:33:47;20.33;;;5.27;;
46391;SDS011;32098;49.448;7.904;2022-12-24T15:36:32;21.90;;;5.00;;
46391;SDS011;32098;49.448;7.904;2022-12-24T15:39:02;15.63;;;5.77;;
46391;SDS011;32098;49.448;7.904;2022-12-24T15:41:40;19.67;;;6.63;;
46391;SDS011;32098;49.448;7.904;2022-12-24T15:44:27;17.77;;;6.63;;
46391;SDS011;32098;49.448;7.904;2022-12-24T15:47:01;20.60;;;7.83;;
46391;SDS011;32098;49.448;7.904;2022-12-24T15:49:31;20.43;;;6.93;;
46391;SDS011;32098;49.448;7.904;2022-12-24T15:52:07;21.33;;;9.00;;
46391;SDS011;32098;49.448;7.904;2022-12-24T15:54:35;17.77;;;7.03;;
46391;SDS011;32098;49.448;7.904;2022-12-24T15:57:12;20.63;;;7.67;;
46391;SDS011;32098;49.448;7.904;2022-12-24T15:59:49;18.93;;;6.63;;
46391;SDS011;32098;49.448;7.904;2022-12-24T16:02:30;22.63;;;7.37;;
46391;SDS011;32098;49.448;7.904;2022-12-24T16:08:17;19.07;;;7.37;;
46391;SDS011;32098;49.448;7.904;2022-12-24T16:16:20;18.33;;;4.73;;
46391;SDS011;32098;49.448;7.904;2022-12-24T16:18:57;21.70;;;6.90;;
46391;SDS011;32098;49.448;7.904;2022-12-24T16:21:33;12.50;;;4.20;;
46391;SDS011;32098;49.448;7.904;2022-12-24T16:24:09;17.33;;;4.53;;
46391;SDS011;32098;49.448;7.904;2022-12-24T16:26:44;15.30;;;3.90;;
46391;SDS011;32098;49.448;7.904;2022-12-24T16:29:13;13.53;;;3.40;;
46391;SDS011;32098;49.448;7.904;2022-12-24T16:31:45;15.60;;;3.90;;
46391;SDS011;32098;49.448;7.904;2022-12-24T16:34:15;15.33;;;6.00;;
46391;SDS011;32098;49.448;7.904;2022-12-24T16:36:43;16.90;;;6.27;;
46391;SDS011;32098;49.448;7.904;2022-12-24T16:39:12;19.37;;;7.63;;
46391;SDS011;32098;49.448;7.904;2022-12-24T16:41:50;17.33;;;5.47;;
46391;SDS011;32098;49.448;7.904;2022-12-24T16:44:36;18.80;;;5.90;;
46391;SDS011;32098;49.448;7.904;2022-12-24T16:47:03;16.73;;;4.60;;
46391;SDS011;32098;49.448;7.904;2022-12-24T16:49:31;10.13;;;5.23;;
46391;SDS011;32098;49.448;7.904;2022-12-24T16:52:03;17.10;;;5.37;;
46391;SDS011;32098;49.448;7.904;2022-12-24T16:54:31;18.47;;;6.77;;
46391;SDS011;32098;49.448;7.904;2022-12-24T16:56:57;14.93;;;5.70;;
46391;SDS011;32098;49.448;7.904;2022-12-24T16:59:24;15.13;;;5.20;;